Главная страница
METAR-TAF:

METAR-TAF

Аэропорты :

Дакар, Сенегал

широта: 14-44N, долгота: 017-30W, высота над уровнем моря: 27 м

Текущие метеонаблюдения

Эта сводка был подготовлена 1 час и 18 минут назад, в 11:00 UTC
Ветер 10 Узел от восточный
Температура 24°C
Влажность 94%
Давление 1017 hPa
Видимость: 8000 м
Рассеянная облачность на высоте 1300 фута
небольшой дождь

METAR: GOOY 161100Z 08010KT 8000 -RA BKN013 24/23 Q1017

Время: 12:18 (12:18 UTC)

Прогноз

Эта сводка был подготовлена 48 минут назад, в 11:30 UTC
Прогноз действительный с 16-го 12 UTC до 17-го 18 UTC
Ветер 10 Узел от северный
Видимость 10 км и более
Рассеянная облачность на высоте 1300 фута

TAF: GOOY 161130Z 1612/1718 36010KT 9999 BKN013

Метеонаблюдения и прогнозы для более 4000 аэропортов (сводки METAR и TAF).

Имеющиеся станции представлены на карте желтыми и красными точками.

Чтобы увидеть название станции, наведите на нее мышь.

Затем щелкните, чтобы увидеть метеонаблюдения и метеопрогнозы.

Управление картой: чтобы увеличить масштаб, щелкните зеленые кнопки с черным крестиком; чтобы уменьшить масштаб, щелкните зеленую кнопку с тире; для просмотра соседних карт щелкайте зеленые стрелки.


METAR-TAF: